createdAt,value
2022-10-12T00:01:07.079Z,1.45
2022-10-12T00:03:35.023Z,1.75
2022-10-12T00:06:15.124Z,1.48
2022-10-12T00:08:42.829Z,1.40
2022-10-12T00:11:13.552Z,1.45
2022-10-12T00:13:40.331Z,1.58
2022-10-12T00:16:09.951Z,1.65
2022-10-12T00:18:37.331Z,1.70
2022-10-12T00:21:09.917Z,1.42
2022-10-12T00:23:38.194Z,1.60
2022-10-12T00:26:08.415Z,1.50
2022-10-12T00:28:36.192Z,1.60
2022-10-12T00:31:17.496Z,1.70
2022-10-12T00:33:45.262Z,1.88
2022-10-12T00:36:19.798Z,1.30
2022-10-12T00:38:47.688Z,1.50
2022-10-12T00:41:15.945Z,1.52
2022-10-12T00:43:43.960Z,1.33
2022-10-12T00:46:33.212Z,1.63
2022-10-12T00:51:39.858Z,1.88
2022-10-12T00:54:11.176Z,1.63
2022-10-12T00:56:42.180Z,1.60
2022-10-12T00:59:15.464Z,1.63
2022-10-12T01:01:42.462Z,1.50
2022-10-12T01:04:09.327Z,1.80
2022-10-12T01:06:36.307Z,1.63
2022-10-12T01:09:03.772Z,1.65
2022-10-12T01:11:30.586Z,1.50
2022-10-12T01:13:58.220Z,1.65
2022-10-12T01:16:41.570Z,1.63
2022-10-12T01:19:52.592Z,1.75
2022-10-12T01:22:22.681Z,1.55
2022-10-12T01:25:00.304Z,1.88
2022-10-12T01:27:40.192Z,1.55
2022-10-12T01:30:19.556Z,1.92
2022-10-12T01:33:11.083Z,1.73
2022-10-12T01:36:06.788Z,1.55
2022-10-12T01:38:36.964Z,1.48
2022-10-12T01:41:24.588Z,1.67
2022-10-12T01:43:52.318Z,1.63
2022-10-12T01:46:18.810Z,2.10
2022-10-12T01:48:48.648Z,2.17
2022-10-12T01:51:29.401Z,1.65
2022-10-12T01:54:27.072Z,1.70
2022-10-12T01:57:04.560Z,1.40
2022-10-12T01:59:43.722Z,1.60
2022-10-12T02:02:43.662Z,1.70
2022-10-12T02:05:21.798Z,1.85
2022-10-12T02:08:30.377Z,1.67
2022-10-12T02:11:13.324Z,1.90
2022-10-12T02:13:48.880Z,2.28
2022-10-12T02:16:19.783Z,1.75
2022-10-12T02:18:50.700Z,2.20
2022-10-12T02:21:22.007Z,1.90
2022-10-12T02:23:50.945Z,1.98
2022-10-12T02:26:19.154Z,1.65
2022-10-12T02:28:46.501Z,1.75
2022-10-12T02:31:39.120Z,2.08
2022-10-12T02:34:18.422Z,1.90
2022-10-12T02:36:57.016Z,2.10
2022-10-12T02:39:32.153Z,1.97
2022-10-12T02:42:05.160Z,2.00
2022-10-12T02:44:35.497Z,1.77
2022-10-12T02:47:04.412Z,1.80
2022-10-12T02:49:34.206Z,1.75
2022-10-12T02:52:03.710Z,2.00
2022-10-12T02:56:57.682Z,1.92
2022-10-12T02:59:24.767Z,2.13
2022-10-12T03:01:51.574Z,2.00
2022-10-12T03:04:18.385Z,1.88
2022-10-12T03:06:45.188Z,2.15
2022-10-12T03:09:11.948Z,1.98
2022-10-12T03:11:43.759Z,1.90
2022-10-12T03:14:17.941Z,2.00
2022-10-12T03:16:46.652Z,2.20
2022-10-12T03:19:13.636Z,1.90
2022-10-12T03:21:40.347Z,2.35
2022-10-12T03:24:07.336Z,1.95
2022-10-12T03:26:34.386Z,2.10
2022-10-12T03:29:01.079Z,2.10
2022-10-12T03:31:27.743Z,2.08
2022-10-12T03:33:54.382Z,2.10
2022-10-12T03:36:21.060Z,1.98
2022-10-12T03:38:47.893Z,1.90
2022-10-12T03:41:14.680Z,2.58
2022-10-12T03:43:41.475Z,2.00
2022-10-12T03:46:08.262Z,1.88
2022-10-12T03:48:35.144Z,2.47
2022-10-12T03:51:01.959Z,2.10
2022-10-12T03:53:28.476Z,2.20
2022-10-12T03:55:55.042Z,1.92
2022-10-12T03:58:21.706Z,1.83
2022-10-12T04:00:53.091Z,2.47
2022-10-12T04:03:19.837Z,2.33
2022-10-12T04:05:53.890Z,2.38
2022-10-12T04:08:20.729Z,2.03
2022-10-12T04:10:47.344Z,2.30
2022-10-12T04:13:13.872Z,1.73
2022-10-12T04:15:40.436Z,2.00
2022-10-12T04:18:07.040Z,2.05
2022-10-12T04:20:33.760Z,2.13
2022-10-12T04:23:00.556Z,2.60
2022-10-12T04:25:30.066Z,2.20
2022-10-12T04:27:57.120Z,2.22
2022-10-12T04:30:23.823Z,2.30
2022-10-12T04:32:52.286Z,2.08
2022-10-12T04:35:18.932Z,2.10
2022-10-12T04:37:45.538Z,2.15
2022-10-12T04:40:12.184Z,1.80
2022-10-12T04:42:38.740Z,2.22
2022-10-12T04:45:05.981Z,2.15
2022-10-12T04:47:35.235Z,2.10
2022-10-12T04:52:28.919Z,2.58
2022-10-12T04:54:55.698Z,1.95
2022-10-12T04:57:22.560Z,2.10
2022-10-12T04:59:49.384Z,2.38
2022-10-12T05:02:16.419Z,2.25
2022-10-12T05:04:43.218Z,2.00
2022-10-12T05:07:09.761Z,2.10
2022-10-12T05:09:36.360Z,1.98
2022-10-12T05:12:02.985Z,2.17
2022-10-12T05:14:33.582Z,1.92
2022-10-12T05:17:03.012Z,2.45
2022-10-12T05:19:29.698Z,2.05
2022-10-12T05:21:56.507Z,2.13
2022-10-12T05:24:23.323Z,2.08
2022-10-12T05:26:50.047Z,2.20
2022-10-12T05:29:16.737Z,2.10
2022-10-12T05:31:43.362Z,2.60
2022-10-12T05:34:10.357Z,2.25
2022-10-12T05:36:37.365Z,2.15
2022-10-12T05:39:04.115Z,2.45
2022-10-12T05:41:30.659Z,2.20
2022-10-12T05:43:57.289Z,2.17
2022-10-12T05:46:23.882Z,2.60
2022-10-12T05:48:50.556Z,2.30
2022-10-12T05:51:17.309Z,1.85
2022-10-12T05:53:43.903Z,2.13
2022-10-12T05:56:10.528Z,2.13
2022-10-12T05:58:37.136Z,2.20
2022-10-12T06:01:09.087Z,2.20
2022-10-12T06:03:36.400Z,2.35
2022-10-12T06:06:04.268Z,1.70
2022-10-12T06:08:31.384Z,2.28
2022-10-12T06:10:58.231Z,2.40
2022-10-12T06:13:25.381Z,2.08
2022-10-12T06:15:52.564Z,2.22
2022-10-12T06:18:19.792Z,1.98
2022-10-12T06:21:08.750Z,2.10
2022-10-12T06:23:39.407Z,2.00
2022-10-12T06:26:06.493Z,1.98
2022-10-12T06:28:33.356Z,1.73
2022-10-12T06:31:01.730Z,2.10
2022-10-12T06:33:28.937Z,1.70
2022-10-12T06:35:56.283Z,1.88
2022-10-12T06:38:23.787Z,2.03
2022-10-12T06:40:50.587Z,2.25
2022-10-12T06:43:17.415Z,2.38
2022-10-12T06:45:44.115Z,2.20
2022-10-12T06:48:12.900Z,1.98
2022-10-12T06:50:42.810Z,2.03
2022-10-12T06:53:09.408Z,2.60
2022-10-12T06:55:39.516Z,2.20
2022-10-12T06:58:06.098Z,1.92
2022-10-12T07:00:32.785Z,1.92
2022-10-12T07:02:59.352Z,1.77
2022-10-12T07:05:25.878Z,2.10
2022-10-12T07:07:52.703Z,1.95
2022-10-12T07:10:19.543Z,1.80
2022-10-12T07:12:46.109Z,2.08
2022-10-12T07:15:12.866Z,1.73
2022-10-12T07:17:39.705Z,1.95
2022-10-12T07:20:07.855Z,1.95
2022-10-12T07:22:34.955Z,2.17
2022-10-12T07:25:01.798Z,1.95
2022-10-12T07:27:28.403Z,1.65
2022-10-12T07:29:55.159Z,2.35
2022-10-12T07:32:21.798Z,2.00
2022-10-12T07:34:48.465Z,2.03
2022-10-12T07:37:15.863Z,2.13
2022-10-12T07:39:43.156Z,1.98
2022-10-12T07:42:09.834Z,2.03
2022-10-12T07:44:36.518Z,1.98
2022-10-12T07:47:03.150Z,1.88
2022-10-12T07:49:29.966Z,1.92
2022-10-12T07:51:57.021Z,1.95
2022-10-12T07:54:29.111Z,2.00
2022-10-12T07:56:56.879Z,1.90
2022-10-12T07:59:24.137Z,1.80
2022-10-12T08:01:50.975Z,1.85
2022-10-12T08:04:17.700Z,1.98
2022-10-12T08:06:44.474Z,1.77
2022-10-12T08:09:11.613Z,1.80
2022-10-12T08:11:39.998Z,1.80
2022-10-12T08:14:12.247Z,1.95
2022-10-12T08:16:38.849Z,2.17
2022-10-12T08:19:05.437Z,1.90
2022-10-12T08:21:32.036Z,1.80
2022-10-12T08:23:58.828Z,1.77
2022-10-12T08:26:25.776Z,2.00
2022-10-12T08:28:52.564Z,1.90
2022-10-12T08:31:19.510Z,2.08
2022-10-12T08:33:46.301Z,2.03
2022-10-12T08:36:13.284Z,1.60
2022-10-12T08:38:40.028Z,1.90
2022-10-12T08:41:37.509Z,1.67
2022-10-12T08:44:07.124Z,2.20
2022-10-12T08:46:34.131Z,1.77
2022-10-12T08:49:14.673Z,1.73
2022-10-12T08:51:53.987Z,1.92
2022-10-12T08:54:23.131Z,1.83
2022-10-12T08:56:53.609Z,2.10
2022-10-12T08:59:20.443Z,1.92
2022-10-12T09:02:23.969Z,2.00
2022-10-12T09:05:10.781Z,2.10
2022-10-12T09:07:45.505Z,1.83
2022-10-12T09:10:32.838Z,2.00
2022-10-12T09:13:23.771Z,1.65
2022-10-12T09:16:21.294Z,2.05
2022-10-12T09:18:52.996Z,2.10
2022-10-12T09:21:23.117Z,1.70
2022-10-12T09:23:50.012Z,1.80
2022-10-12T09:26:25.801Z,1.80
2022-10-12T09:28:55.822Z,1.75
2022-10-12T09:31:28.617Z,2.40
2022-10-12T09:33:58.982Z,1.90
2022-10-12T09:36:30.979Z,2.45
2022-10-12T09:39:00.161Z,1.65
2022-10-12T09:41:35.521Z,2.20
2022-10-12T09:44:06.133Z,1.90
2022-10-12T09:46:56.143Z,2.00
2022-10-12T09:49:22.828Z,2.00
2022-10-12T09:52:00.261Z,1.88
2022-10-12T09:54:28.014Z,2.00
2022-10-12T09:56:55.421Z,1.70
2022-10-12T09:59:30.593Z,1.88
2022-10-12T10:01:59.664Z,1.60
2022-10-12T10:04:29.555Z,1.75
2022-10-12T10:07:14.034Z,1.73
2022-10-12T10:09:40.759Z,1.90
2022-10-12T10:12:21.693Z,1.67
2022-10-12T10:14:49.682Z,1.58
2022-10-12T10:17:24.146Z,1.98
2022-10-12T10:19:52.394Z,1.60
2022-10-12T10:22:20.267Z,1.90
2022-10-12T10:24:55.287Z,1.70
2022-10-12T10:27:37.974Z,1.80
2022-10-12T10:30:40.875Z,2.05
2022-10-12T10:33:15.723Z,1.40
2022-10-12T10:35:55.509Z,1.25
2022-10-12T10:38:22.968Z,1.70
2022-10-12T10:40:57.060Z,1.60
2022-10-12T10:43:32.776Z,1.90
2022-10-12T10:46:02.781Z,1.90
2022-10-12T10:48:51.523Z,2.00
2022-10-12T10:51:18.229Z,1.90
2022-10-12T10:53:50.276Z,1.75
2022-10-12T10:56:26.225Z,1.70
2022-10-12T10:58:57.115Z,1.58
2022-10-12T11:01:23.796Z,2.28
2022-10-12T11:04:01.131Z,2.00
2022-10-12T11:06:38.515Z,1.67
2022-10-12T11:09:12.121Z,2.00
2022-10-12T11:11:43.272Z,1.58
2022-10-12T11:14:16.510Z,1.92
2022-10-12T11:16:48.939Z,1.67
2022-10-12T11:19:47.808Z,1.83
2022-10-12T11:22:40.226Z,2.10
2022-10-12T11:25:21.769Z,1.90
2022-10-12T11:27:53.586Z,1.90
2022-10-12T11:30:26.834Z,2.10
2022-10-12T11:33:00.792Z,1.65
2022-10-12T11:35:40.076Z,1.45
2022-10-12T11:38:27.268Z,2.00
2022-10-12T11:41:34.294Z,1.60
2022-10-12T11:44:07.434Z,1.63
2022-10-12T11:46:38.359Z,1.67
2022-10-12T11:49:31.784Z,1.90
2022-10-12T11:52:03.740Z,1.75
2022-10-12T11:54:43.165Z,1.40
2022-10-12T11:59:50.920Z,1.80
2022-10-12T12:02:23.334Z,1.90
2022-10-12T12:04:51.014Z,1.90
2022-10-12T12:07:42.596Z,1.80
2022-10-12T12:10:43.646Z,1.98
2022-10-12T12:13:19.464Z,1.75
2022-10-12T12:15:51.659Z,1.50
2022-10-12T12:18:22.866Z,1.55
2022-10-12T12:20:49.466Z,1.60
2022-10-12T12:23:21.423Z,1.80
2022-10-12T12:26:04.005Z,1.50
2022-10-12T12:28:32.873Z,1.40
2022-10-12T12:31:07.809Z,1.95
2022-10-12T12:33:38.556Z,1.60
2022-10-12T12:36:12.158Z,1.83
2022-10-12T12:38:50.634Z,1.67
2022-10-12T12:41:22.320Z,1.60
2022-10-12T12:43:53.779Z,1.70
2022-10-12T12:46:21.160Z,1.60
2022-10-12T12:48:47.795Z,1.75
2022-10-12T12:51:25.120Z,1.70
2022-10-12T12:54:05.458Z,1.60
2022-10-12T12:56:56.205Z,1.52
2022-10-12T12:59:28.762Z,1.55
2022-10-12T13:02:34.608Z,1.50
2022-10-12T13:05:06.692Z,1.75
2022-10-12T13:07:42.520Z,1.63
2022-10-12T13:10:43.053Z,1.60
2022-10-12T13:13:21.834Z,1.52
2022-10-12T13:16:03.546Z,1.60
2022-10-12T13:18:57.784Z,1.60
2022-10-12T13:21:31.965Z,1.45
2022-10-12T13:24:08.096Z,1.75
2022-10-12T13:26:37.005Z,1.70
2022-10-12T13:29:12.622Z,1.40
2022-10-12T13:31:43.465Z,1.30
2022-10-12T13:34:19.955Z,1.70
2022-10-12T13:36:51.878Z,1.30
2022-10-12T13:39:21.070Z,1.30
2022-10-12T13:41:51.517Z,1.40
2022-10-12T13:44:34.951Z,1.35
2022-10-12T13:47:20.421Z,1.60
2022-10-12T13:49:47.031Z,1.48
2022-10-12T13:52:13.656Z,1.30
2022-10-12T13:54:48.999Z,1.52
2022-10-12T13:57:39.848Z,1.50
2022-10-12T14:00:09.300Z,1.50
2022-10-12T14:02:36.475Z,1.30
2022-10-12T14:05:06.333Z,1.58
2022-10-12T14:07:37.560Z,1.52
2022-10-12T14:10:07.212Z,1.65
2022-10-12T14:12:37.626Z,1.60
2022-10-12T14:15:05.689Z,1.90
2022-10-12T14:17:32.278Z,1.30
2022-10-12T14:20:16.604Z,1.40
2022-10-12T14:22:49.982Z,1.67
2022-10-12T14:25:28.613Z,1.20
2022-10-12T14:28:01.779Z,1.70
2022-10-12T14:30:29.373Z,1.40
2022-10-12T14:33:09.354Z,1.67
2022-10-12T14:35:37.550Z,1.40
2022-10-12T14:38:41.175Z,1.40
2022-10-12T14:41:35.362Z,1.35
2022-10-12T14:44:22.003Z,1.38
2022-10-12T14:46:48.583Z,1.60
2022-10-12T14:49:19.331Z,1.67
2022-10-12T14:51:46.441Z,1.58
2022-10-12T14:54:13.272Z,1.50
2022-10-12T14:56:40.218Z,1.25
2022-10-12T14:59:07.181Z,1.30
2022-10-12T15:01:36.664Z,1.02
2022-10-12T15:04:05.846Z,1.35
2022-10-12T15:06:32.577Z,1.17
2022-10-12T15:08:59.086Z,1.20
2022-10-12T15:11:25.784Z,1.05
2022-10-12T15:13:52.364Z,1.45
2022-10-12T15:16:23.738Z,1.42
2022-10-12T15:18:50.544Z,1.17
2022-10-12T15:21:18.426Z,1.20
2022-10-12T15:23:45.430Z,1.42
2022-10-12T15:26:14.220Z,1.50
2022-10-12T15:28:41.239Z,1.40
2022-10-12T15:31:17.452Z,1.30
2022-10-12T15:33:44.774Z,1.05
2022-10-12T15:36:11.573Z,1.20
2022-10-12T15:38:38.493Z,1.25
2022-10-12T15:41:06.097Z,1.40
2022-10-12T15:43:34.619Z,1.40
2022-10-12T15:46:03.507Z,1.50
2022-10-12T15:48:30.162Z,1.33
2022-10-12T15:50:56.727Z,1.25
2022-10-12T15:53:25.547Z,1.20
2022-10-12T15:55:55.879Z,0.98
2022-10-12T15:58:23.012Z,1.10
2022-10-12T16:00:49.729Z,1.48
2022-10-12T16:03:24.515Z,1.30
2022-10-12T16:05:52.293Z,1.50
2022-10-12T16:08:18.791Z,1.13
2022-10-12T16:10:46.140Z,1.42
2022-10-12T16:13:13.877Z,1.25
2022-10-12T16:15:41.677Z,0.90
2022-10-12T16:18:08.911Z,1.38
2022-10-12T16:20:37.560Z,1.17
2022-10-12T16:23:07.445Z,1.30
2022-10-12T16:25:35.087Z,1.38
2022-10-12T16:28:01.829Z,1.23
2022-10-12T16:30:28.454Z,1.00
2022-10-12T16:32:55.058Z,1.20
2022-10-12T16:35:22.142Z,1.35
2022-10-12T16:37:48.813Z,1.15
2022-10-12T16:40:16.138Z,1.08
2022-10-12T16:42:43.183Z,1.40
2022-10-12T16:45:11.038Z,1.40
2022-10-12T16:47:41.898Z,1.20
2022-10-12T16:50:10.462Z,1.80
2022-10-12T16:52:37.039Z,1.80
2022-10-12T16:55:04.912Z,1.50
2022-10-12T16:57:31.797Z,1.48
2022-10-12T16:59:58.975Z,1.60
2022-10-12T17:02:27.431Z,1.48
2022-10-12T17:04:54.069Z,1.40
2022-10-12T17:07:21.160Z,1.30
2022-10-12T17:09:48.145Z,1.35
2022-10-12T17:12:15.190Z,1.77
2022-10-12T17:14:42.081Z,1.30
2022-10-12T17:17:08.862Z,1.33
2022-10-12T17:19:39.881Z,1.30
2022-10-12T17:22:09.832Z,1.00
2022-10-12T17:24:39.160Z,1.25
2022-10-12T17:27:07.743Z,1.30
2022-10-12T17:29:39.525Z,1.48
2022-10-12T17:32:07.097Z,1.13
2022-10-12T17:34:41.449Z,1.40
2022-10-12T17:37:11.358Z,1.10
2022-10-12T17:39:44.618Z,1.20
2022-10-12T17:42:12.044Z,1.20
2022-10-12T17:44:38.724Z,1.30
2022-10-12T17:47:05.442Z,1.40
2022-10-12T17:49:32.323Z,1.50
2022-10-12T17:51:59.106Z,1.15
2022-10-12T17:54:26.834Z,1.50
2022-10-12T17:56:57.133Z,1.50
2022-10-12T17:59:24.979Z,1.05
2022-10-12T18:01:52.664Z,1.23
2022-10-12T18:04:19.862Z,1.40
2022-10-12T18:06:46.613Z,1.20
2022-10-12T18:09:13.598Z,1.30
2022-10-12T18:11:40.457Z,1.27
2022-10-12T18:14:09.395Z,1.20
2022-10-12T18:16:37.359Z,1.40
2022-10-12T18:19:06.068Z,1.33
2022-10-12T18:21:34.153Z,1.23
2022-10-12T18:24:03.066Z,1.20
2022-10-12T18:26:30.567Z,1.30
2022-10-12T18:29:00.449Z,1.10
2022-10-12T18:31:27.933Z,1.10
2022-10-12T18:33:55.731Z,1.42
2022-10-12T18:36:22.884Z,1.30
2022-10-12T18:38:49.625Z,1.25
2022-10-12T18:41:22.036Z,1.30
2022-10-12T18:43:50.282Z,1.52
2022-10-12T18:46:18.564Z,1.55
2022-10-12T18:48:45.875Z,1.20
2022-10-12T18:51:20.639Z,1.45
2022-10-12T18:53:48.251Z,1.30
2022-10-12T18:56:15.040Z,1.08
2022-10-12T18:58:42.163Z,1.55
2022-10-12T19:01:14.584Z,1.40
2022-10-12T19:03:41.818Z,1.25
2022-10-12T19:06:12.434Z,1.55
2022-10-12T19:08:39.532Z,1.00
2022-10-12T19:11:08.204Z,1.70
2022-10-12T19:13:37.644Z,1.40
2022-10-12T19:16:15.429Z,1.40
2022-10-12T19:18:42.725Z,1.40
2022-10-12T19:21:12.425Z,1.50
2022-10-12T19:23:39.580Z,1.40
2022-10-12T19:26:08.939Z,1.48
2022-10-12T19:28:35.977Z,1.58
2022-10-12T19:31:14.420Z,1.50
2022-10-12T19:33:41.877Z,1.70
2022-10-12T19:36:10.949Z,1.50
2022-10-12T19:38:38.203Z,1.80
2022-10-12T19:41:05.518Z,1.45
2022-10-12T19:43:33.465Z,1.30
2022-10-12T19:46:08.985Z,1.52
2022-10-12T19:48:36.909Z,1.65
2022-10-12T19:51:07.274Z,1.38
2022-10-12T19:53:34.849Z,1.50
2022-10-12T19:56:04.514Z,1.50
2022-10-12T19:58:31.864Z,1.75
2022-10-12T20:01:02.351Z,1.48
2022-10-12T20:03:29.746Z,1.60
2022-10-12T20:05:56.391Z,2.17
2022-10-12T20:08:23.293Z,1.88
2022-10-12T20:10:49.926Z,1.90
2022-10-12T20:13:16.721Z,1.77
2022-10-12T20:15:43.333Z,1.55
2022-10-12T20:18:10.342Z,1.60
2022-10-12T20:20:42.085Z,1.50
2022-10-12T20:23:08.804Z,1.88
2022-10-12T20:25:44.022Z,1.90
2022-10-12T20:28:11.743Z,1.55
2022-10-12T20:30:39.365Z,1.92
2022-10-12T20:33:06.117Z,2.20
2022-10-12T20:35:33.381Z,1.83
2022-10-12T20:38:00.341Z,1.80
2022-10-12T20:40:28.158Z,1.95
2022-10-12T20:42:56.562Z,1.90
2022-10-12T20:45:23.203Z,1.80
2022-10-12T20:47:49.835Z,2.00
2022-10-12T20:50:16.687Z,1.92
2022-10-12T20:52:44.051Z,1.90
2022-10-12T20:55:11.277Z,1.73
2022-10-12T20:57:38.094Z,2.17
2022-10-12T21:00:06.111Z,1.90
2022-10-12T21:02:33.578Z,1.90
2022-10-12T21:05:00.265Z,2.47
2022-10-12T21:07:26.909Z,1.60
2022-10-12T21:09:53.492Z,2.00
2022-10-12T21:12:20.526Z,1.80
2022-10-12T21:14:47.531Z,2.30
2022-10-12T21:17:14.067Z,2.33
2022-10-12T21:19:41.230Z,2.30
2022-10-12T21:22:07.972Z,2.22
2022-10-12T21:24:34.983Z,2.50
2022-10-12T21:27:01.969Z,2.30
2022-10-12T21:29:28.560Z,2.15
2022-10-12T21:31:55.534Z,2.08
2022-10-12T21:34:22.509Z,2.10
2022-10-12T21:36:49.321Z,2.30
2022-10-12T21:39:16.894Z,2.45
2022-10-12T21:41:44.000Z,2.90
2022-10-12T21:44:11.254Z,2.72
2022-10-12T21:46:38.051Z,2.35
2022-10-12T21:49:08.148Z,2.63
2022-10-12T21:51:36.746Z,2.30
2022-10-12T21:54:05.461Z,2.13
2022-10-12T21:56:35.187Z,2.10
2022-10-12T21:59:04.097Z,1.95
2022-10-12T22:01:36.579Z,2.20
2022-10-12T22:04:06.755Z,1.95
2022-10-12T22:06:33.864Z,2.20
2022-10-12T22:09:06.541Z,2.20
2022-10-12T22:11:35.108Z,2.50
2022-10-12T22:14:07.284Z,1.90
2022-10-12T22:16:35.194Z,1.90
2022-10-12T22:19:05.136Z,2.30
2022-10-12T22:21:32.610Z,2.30
2022-10-12T22:24:00.467Z,2.05
2022-10-12T22:26:27.163Z,2.05
2022-10-12T22:28:55.016Z,2.10
2022-10-12T22:31:23.226Z,2.20
2022-10-12T22:33:50.195Z,1.83
2022-10-12T22:36:17.195Z,2.20
2022-10-12T22:38:44.869Z,2.03
2022-10-12T22:41:17.436Z,2.00
2022-10-12T22:43:48.570Z,1.90
2022-10-12T22:46:15.725Z,2.20
2022-10-12T22:48:42.485Z,2.15
2022-10-12T22:51:11.711Z,2.47
2022-10-12T22:53:39.407Z,2.60
2022-10-12T22:56:08.752Z,2.30
2022-10-12T23:01:11.724Z,2.33
2022-10-12T23:03:38.950Z,2.40
2022-10-12T23:06:11.262Z,2.25
2022-10-12T23:08:38.348Z,2.30
2022-10-12T23:11:07.332Z,2.22
2022-10-12T23:13:36.676Z,2.08
2022-10-12T23:16:12.646Z,2.00
2022-10-12T23:18:40.052Z,2.00
2022-10-12T23:21:09.359Z,1.90
2022-10-12T23:23:37.413Z,2.15
2022-10-12T23:26:07.301Z,2.50
2022-10-12T23:28:34.459Z,2.28
2022-10-12T23:31:05.958Z,2.35
2022-10-12T23:33:33.297Z,2.20
2022-10-12T23:36:06.285Z,2.17
2022-10-12T23:38:35.045Z,2.17
2022-10-12T23:41:01.901Z,2.00
2022-10-12T23:43:29.102Z,2.03
2022-10-12T23:46:01.315Z,2.05
2022-10-12T23:48:28.049Z,1.90
2022-10-12T23:50:54.838Z,2.03
2022-10-12T23:53:22.987Z,1.65
2022-10-12T23:55:50.118Z,2.15
2022-10-12T23:58:17.137Z,2.33
